Crandon, WI

11:02 PM CDT on July 30, 2015 (GMT -0500)
Lake Lucerne | | Change Station
CLOSE
Current Station
Personal Weather Station
Location: Crandon, WI
Elevation: 1644 ft
Nearby Weather Stations

Elev 1644 ft 45.52 °N, 88.85 °W | Updated 4 seconds ago

Clear
Clear
60.2 °F
Feels Like 60.2 °F
N
0.0
Wind Variable Wind from SSW
Gusts 0.0 mph

Today
High -- | Low -- °F
--% Chance of Precip.
Yesterday
High -- | Low -- °F
Precip. -- in
5:36 AM 8:26 PM
Full, 100% visible
Pressure 29.96 in
Visibility 10.0 miles
Clouds Clear
Dew Point 59 °F
Humidity 96%
Rainfall 0.20 in
Snow Depth Not available.
UV 0 out of 12
Pollen 7.40 out of 12
Air Quality Not available.
Flu Activity Not available.
METAR KRHI 310353Z AUTO 27007KT 10SM CLR 17/13 A2997 RMK AO2 SLP143 T01720133

More Conditions Fewer Conditions

Pressure 29.96 in
Visibility 10.0 miles
Clouds Clear
Dew Point 59 °F
Humidity 96%
Rainfall 0.20 in
Snow Depth Not available.
UV 0 out of 12
Pollen 7.40 out of 12
Air Quality Not available.
Flu Activity Not available.
METAR KRHI 310353Z AUTO 27007KT 10SM CLR 17/13 A2997 RMK AO2 SLP143 T01720133

More Conditions Fewer Conditions

10-Day Weather Forecast

×

Almanac

Astronomy

Jul. 30, 2015 Rise Set
Actual Time
Civil Twilight
Nautical Twilight
Astronomical Twilight
Moon
Length of Visible Light
Length of Day
Tomorrow will be .
, % of the Moon is Illuminated

Today's Extremes

State Highs State Lows

Community

WunderPhotos

Upload Photos

1,842,602 photos uploaded!

WunderBlogs® & News

Nearby

Air Quality

  Air Quality AQ Index Pollutant
Not available.

Snow Depth

Station Depth Elevation

Earthquake Activity

City Distance Mag. Time & Date
Minimum magnitude displayed is 2.5.

Coastal Water Temperatures

Place Temperature

Stations

Nearby Weather Stations

Station Location Temp. Windchill Dew Point Humidity Wind Precip. Elev Updated Type